Página principal
METAR-TAF:

METAR-TAF

Aeroportos :

Semei, Cazaquistão

latitude: 50-21-05N, longitude: 080-14-04E, altura: 232 m

Observação actual do tempo

O boletim foi feito há 3 horas e 36 minutos, às 13:30 UTC
Vento 16 kt de oes-noroeste
Temperatura 14°C
Humidade 77%
Pressão 1001 hPa
Visibilidade 10 km ou mais
Nuvens dispersasa uma altura de 4300 ft, Cumulonimbus.

METAR: UASS 231330Z 29008MPS 9999 SCT043CB 14/10 Q1001 NOSIG RMK QFE733/0977

Hora: 23:06 (17:06 UTC)

Previsão

O boletim foi feito há 6 horas e 5 minutos, às 11:01 UTC
Previsão válida de 23 às 12 UTC a 23 às 21 UTC
Vento 19 kt de nor-noroeste com rajadas de 29 kt
Visibilidade 10 km ou mais
Nuvens fragmentadasa uma altura de 4000 ft
Nuvens fragmentadasa uma altura de 10000 ft
Temporariamente
de 23 às 12 UTC a 23 às 18 UTC
Visibilidade: 5000 m
Nuvens fragmentadasa uma altura de 2000 ft, Cumulonimbus.
aguaceiros fracos de chuva

TAF: UASS 231101Z 2312/2321 33010G15MPS 9999 BKN040 BKN100 TEMPO 2312/2318 5000 -SHRA BKN020CB

Observações e previsões do tempo de mais de 4000 aeroportos (mensagens METAR e TAF).

As estações disponíveis são os pontos amarelos e vermelhos sobre o mapa.

Mova o rato sobre o mapa para ver o nome da estação.

Depois clique no ponto para visualizar as observações e previsões meteorológicas.

Para alterar o mapa : clique nos botões verdes com uma cruz preta para aumentar o zoom; no botão verde com uma pitada de zoom; ou nas setas verdes para mapas adjacentes.


METAR-TAF: